sensor_id;sensor_type;location;lat;lon;timestamp;P1;durP1;ratioP1;P2;durP2;ratioP2
7025;SDS011;3554;42.132;24.786;2023-04-25T00:00:12;3.30;;;3.07;;
7025;SDS011;3554;42.132;24.786;2023-04-25T00:02:39;2.50;;;2.40;;
7025;SDS011;3554;42.132;24.786;2023-04-25T00:05:06;2.40;;;2.30;;
7025;SDS011;3554;42.132;24.786;2023-04-25T00:07:34;2.63;;;2.53;;
7025;SDS011;3554;42.132;24.786;2023-04-25T00:10:01;2.40;;;2.30;;
7025;SDS011;3554;42.132;24.786;2023-04-25T00:12:30;2.80;;;2.70;;
7025;SDS011;3554;42.132;24.786;2023-04-25T00:14:58;2.53;;;2.33;;
7025;SDS011;3554;42.132;24.786;2023-04-25T00:17:25;2.47;;;2.37;;
7025;SDS011;3554;42.132;24.786;2023-04-25T00:19:52;2.47;;;2.37;;
7025;SDS011;3554;42.132;24.786;2023-04-25T00:22:18;2.40;;;2.30;;
7025;SDS011;3554;42.132;24.786;2023-04-25T00:24:45;2.33;;;2.23;;
7025;SDS011;3554;42.132;24.786;2023-04-25T00:27:12;2.57;;;2.37;;
7025;SDS011;3554;42.132;24.786;2023-04-25T00:29:40;2.33;;;2.23;;
7025;SDS011;3554;42.132;24.786;2023-04-25T00:32:07;2.87;;;2.67;;
7025;SDS011;3554;42.132;24.786;2023-04-25T00:34:34;3.03;;;2.83;;
7025;SDS011;3554;42.132;24.786;2023-04-25T00:37:01;3.23;;;3.03;;
7025;SDS011;3554;42.132;24.786;2023-04-25T00:39:28;2.60;;;2.40;;
7025;SDS011;3554;42.132;24.786;2023-04-25T00:41:55;2.40;;;2.30;;
7025;SDS011;3554;42.132;24.786;2023-04-25T00:44:22;2.93;;;2.83;;
7025;SDS011;3554;42.132;24.786;2023-04-25T00:46:53;3.27;;;2.97;;
7025;SDS011;3554;42.132;24.786;2023-04-25T00:49:20;3.57;;;3.37;;
7025;SDS011;3554;42.132;24.786;2023-04-25T00:51:47;2.97;;;2.60;;
7025;SDS011;3554;42.132;24.786;2023-04-25T00:54:14;2.97;;;2.87;;
7025;SDS011;3554;42.132;24.786;2023-04-25T00:56:42;3.10;;;3.00;;
7025;SDS011;3554;42.132;24.786;2023-04-25T00:59:10;2.90;;;2.80;;
7025;SDS011;3554;42.132;24.786;2023-04-25T01:01:38;3.17;;;2.97;;
7025;SDS011;3554;42.132;24.786;2023-04-25T01:04:07;3.20;;;3.10;;
7025;SDS011;3554;42.132;24.786;2023-04-25T01:06:34;2.80;;;2.70;;
7025;SDS011;3554;42.132;24.786;2023-04-25T01:09:01;2.90;;;2.80;;
7025;SDS011;3554;42.132;24.786;2023-04-25T01:11:28;3.00;;;2.80;;
7025;SDS011;3554;42.132;24.786;2023-04-25T01:13:55;2.67;;;2.57;;
7025;SDS011;3554;42.132;24.786;2023-04-25T01:16:23;2.90;;;2.73;;
7025;SDS011;3554;42.132;24.786;2023-04-25T01:18:50;3.60;;;3.30;;
7025;SDS011;3554;42.132;24.786;2023-04-25T01:21:18;3.30;;;3.03;;
7025;SDS011;3554;42.132;24.786;2023-04-25T01:23:45;3.33;;;3.23;;
7025;SDS011;3554;42.132;24.786;2023-04-25T01:26:13;3.50;;;3.40;;
7025;SDS011;3554;42.132;24.786;2023-04-25T01:28:40;3.53;;;3.43;;
7025;SDS011;3554;42.132;24.786;2023-04-25T01:31:07;3.13;;;3.03;;
7025;SDS011;3554;42.132;24.786;2023-04-25T01:33:34;3.33;;;3.13;;
7025;SDS011;3554;42.132;24.786;2023-04-25T01:36:01;3.97;;;3.67;;
7025;SDS011;3554;42.132;24.786;2023-04-25T01:38:30;3.83;;;3.43;;
7025;SDS011;3554;42.132;24.786;2023-04-25T01:40:58;4.47;;;4.27;;
7025;SDS011;3554;42.132;24.786;2023-04-25T01:43:26;3.97;;;3.77;;
7025;SDS011;3554;42.132;24.786;2023-04-25T01:45:53;4.60;;;3.97;;
7025;SDS011;3554;42.132;24.786;2023-04-25T01:48:20;4.20;;;3.90;;
7025;SDS011;3554;42.132;24.786;2023-04-25T01:50:47;3.70;;;3.40;;
7025;SDS011;3554;42.132;24.786;2023-04-25T01:53:14;4.80;;;4.50;;
7025;SDS011;3554;42.132;24.786;2023-04-25T01:55:43;4.17;;;3.80;;
7025;SDS011;3554;42.132;24.786;2023-04-25T01:58:09;4.00;;;3.80;;
7025;SDS011;3554;42.132;24.786;2023-04-25T02:00:38;4.57;;;4.27;;
7025;SDS011;3554;42.132;24.786;2023-04-25T02:03:05;4.10;;;3.90;;
7025;SDS011;3554;42.132;24.786;2023-04-25T02:05:35;4.50;;;4.20;;
7025;SDS011;3554;42.132;24.786;2023-04-25T02:08:04;3.93;;;3.73;;
7025;SDS011;3554;42.132;24.786;2023-04-25T02:10:32;4.27;;;3.87;;
7025;SDS011;3554;42.132;24.786;2023-04-25T02:13:00;4.50;;;4.10;;
7025;SDS011;3554;42.132;24.786;2023-04-25T02:15:27;4.97;;;4.73;;
7025;SDS011;3554;42.132;24.786;2023-04-25T02:17:54;5.43;;;5.13;;
7025;SDS011;3554;42.132;24.786;2023-04-25T02:20:21;6.50;;;6.00;;
7025;SDS011;3554;42.132;24.786;2023-04-25T02:22:49;6.67;;;6.17;;
7025;SDS011;3554;42.132;24.786;2023-04-25T02:25:16;6.43;;;5.93;;
7025;SDS011;3554;42.132;24.786;2023-04-25T02:27:44;7.07;;;6.67;;
7025;SDS011;3554;42.132;24.786;2023-04-25T02:30:13;6.30;;;5.90;;
7025;SDS011;3554;42.132;24.786;2023-04-25T02:32:40;7.97;;;7.47;;
7025;SDS011;3554;42.132;24.786;2023-04-25T02:35:07;8.00;;;7.40;;
7025;SDS011;3554;42.132;24.786;2023-04-25T02:37:35;8.57;;;7.97;;
7025;SDS011;3554;42.132;24.786;2023-04-25T02:40:03;8.90;;;8.30;;
7025;SDS011;3554;42.132;24.786;2023-04-25T02:42:30;8.73;;;8.03;;
7025;SDS011;3554;42.132;24.786;2023-04-25T02:44:57;7.87;;;7.47;;
7025;SDS011;3554;42.132;24.786;2023-04-25T02:47:25;7.90;;;7.50;;
7025;SDS011;3554;42.132;24.786;2023-04-25T02:49:52;8.63;;;8.03;;
7025;SDS011;3554;42.132;24.786;2023-04-25T02:52:19;9.13;;;8.53;;
7025;SDS011;3554;42.132;24.786;2023-04-25T02:54:46;8.30;;;7.80;;
7025;SDS011;3554;42.132;24.786;2023-04-25T02:57:13;7.13;;;6.63;;
7025;SDS011;3554;42.132;24.786;2023-04-25T02:59:40;5.93;;;5.63;;
7025;SDS011;3554;42.132;24.786;2023-04-25T03:02:06;5.97;;;5.67;;
7025;SDS011;3554;42.132;24.786;2023-04-25T03:04:34;6.43;;;5.93;;
7025;SDS011;3554;42.132;24.786;2023-04-25T03:07:01;5.60;;;5.30;;
7025;SDS011;3554;42.132;24.786;2023-04-25T03:09:28;9.27;;;6.63;;
7025;SDS011;3554;42.132;24.786;2023-04-25T03:11:55;7.07;;;6.57;;
7025;SDS011;3554;42.132;24.786;2023-04-25T03:14:22;7.93;;;7.43;;
7025;SDS011;3554;42.132;24.786;2023-04-25T03:16:48;6.70;;;6.10;;
7025;SDS011;3554;42.132;24.786;2023-04-25T03:19:15;7.47;;;7.07;;
7025;SDS011;3554;42.132;24.786;2023-04-25T03:21:43;7.60;;;7.20;;
7025;SDS011;3554;42.132;24.786;2023-04-25T03:24:11;8.87;;;8.17;;
7025;SDS011;3554;42.132;24.786;2023-04-25T03:26:37;8.63;;;7.67;;
7025;SDS011;3554;42.132;24.786;2023-04-25T03:29:04;9.47;;;8.77;;
7025;SDS011;3554;42.132;24.786;2023-04-25T03:31:31;8.80;;;8.03;;
7025;SDS011;3554;42.132;24.786;2023-04-25T03:33:58;13.50;;;8.60;;
7025;SDS011;3554;42.132;24.786;2023-04-25T03:36:25;9.27;;;8.57;;
7025;SDS011;3554;42.132;24.786;2023-04-25T03:38:53;9.10;;;8.30;;
7025;SDS011;3554;42.132;24.786;2023-04-25T03:41:19;8.97;;;8.00;;
7025;SDS011;3554;42.132;24.786;2023-04-25T03:43:46;8.63;;;7.83;;
7025;SDS011;3554;42.132;24.786;2023-04-25T03:46:13;7.93;;;7.17;;
7025;SDS011;3554;42.132;24.786;2023-04-25T03:48:40;9.63;;;7.50;;
7025;SDS011;3554;42.132;24.786;2023-04-25T03:51:06;7.47;;;6.97;;
7025;SDS011;3554;42.132;24.786;2023-04-25T03:53:33;7.20;;;6.70;;
7025;SDS011;3554;42.132;24.786;2023-04-25T03:56:01;7.83;;;6.90;;
7025;SDS011;3554;42.132;24.786;2023-04-25T03:58:28;6.87;;;6.47;;
7025;SDS011;3554;42.132;24.786;2023-04-25T04:00:55;6.90;;;6.50;;
7025;SDS011;3554;42.132;24.786;2023-04-25T04:03:21;6.77;;;6.20;;
7025;SDS011;3554;42.132;24.786;2023-04-25T04:05:48;7.80;;;7.20;;
7025;SDS011;3554;42.132;24.786;2023-04-25T04:08:15;6.77;;;6.17;;
7025;SDS011;3554;42.132;24.786;2023-04-25T04:10:42;7.30;;;5.93;;
7025;SDS011;3554;42.132;24.786;2023-04-25T04:13:10;7.80;;;7.07;;
7025;SDS011;3554;42.132;24.786;2023-04-25T04:15:37;8.03;;;7.33;;
7025;SDS011;3554;42.132;24.786;2023-04-25T04:18:03;7.43;;;6.90;;
7025;SDS011;3554;42.132;24.786;2023-04-25T04:20:31;7.23;;;6.67;;
7025;SDS011;3554;42.132;24.786;2023-04-25T04:22:58;6.87;;;6.37;;
7025;SDS011;3554;42.132;24.786;2023-04-25T04:25:24;7.33;;;6.77;;
7025;SDS011;3554;42.132;24.786;2023-04-25T04:27:51;7.10;;;6.70;;
7025;SDS011;3554;42.132;24.786;2023-04-25T04:30:21;7.30;;;6.40;;
7025;SDS011;3554;42.132;24.786;2023-04-25T04:32:49;8.07;;;6.33;;
7025;SDS011;3554;42.132;24.786;2023-04-25T04:35:16;7.70;;;7.20;;
7025;SDS011;3554;42.132;24.786;2023-04-25T04:37:43;7.20;;;6.50;;
7025;SDS011;3554;42.132;24.786;2023-04-25T04:40:10;7.17;;;6.77;;
7025;SDS011;3554;42.132;24.786;2023-04-25T04:42:40;7.83;;;7.17;;
7025;SDS011;3554;42.132;24.786;2023-04-25T04:45:07;7.60;;;7.10;;
7025;SDS011;3554;42.132;24.786;2023-04-25T04:47:36;7.33;;;6.87;;
7025;SDS011;3554;42.132;24.786;2023-04-25T04:50:05;8.53;;;7.80;;
7025;SDS011;3554;42.132;24.786;2023-04-25T04:52:32;8.27;;;7.57;;
7025;SDS011;3554;42.132;24.786;2023-04-25T04:54:59;8.97;;;8.27;;
7025;SDS011;3554;42.132;24.786;2023-04-25T04:57:27;7.53;;;7.00;;
7025;SDS011;3554;42.132;24.786;2023-04-25T04:59:54;8.70;;;8.10;;
7025;SDS011;3554;42.132;24.786;2023-04-25T05:02:21;7.70;;;7.10;;
7025;SDS011;3554;42.132;24.786;2023-04-25T05:04:49;10.20;;;7.47;;
7025;SDS011;3554;42.132;24.786;2023-04-25T05:07:16;8.27;;;7.57;;
7025;SDS011;3554;42.132;24.786;2023-04-25T05:09:43;8.47;;;7.77;;
7025;SDS011;3554;42.132;24.786;2023-04-25T05:12:10;8.13;;;7.50;;
7025;SDS011;3554;42.132;24.786;2023-04-25T05:14:37;8.57;;;7.90;;
7025;SDS011;3554;42.132;24.786;2023-04-25T05:17:04;8.67;;;7.57;;
7025;SDS011;3554;42.132;24.786;2023-04-25T05:19:33;8.30;;;7.70;;
7025;SDS011;3554;42.132;24.786;2023-04-25T05:22:02;8.87;;;8.00;;
7025;SDS011;3554;42.132;24.786;2023-04-25T05:24:29;9.40;;;8.73;;
7025;SDS011;3554;42.132;24.786;2023-04-25T05:26:56;9.60;;;8.60;;
7025;SDS011;3554;42.132;24.786;2023-04-25T05:29:22;9.70;;;8.90;;
7025;SDS011;3554;42.132;24.786;2023-04-25T05:31:49;9.43;;;8.63;;
7025;SDS011;3554;42.132;24.786;2023-04-25T05:34:16;9.53;;;8.63;;
7025;SDS011;3554;42.132;24.786;2023-04-25T05:36:43;9.23;;;8.43;;
7025;SDS011;3554;42.132;24.786;2023-04-25T05:39:14;9.47;;;8.67;;
7025;SDS011;3554;42.132;24.786;2023-04-25T05:41:41;9.30;;;8.70;;
7025;SDS011;3554;42.132;24.786;2023-04-25T05:44:08;9.77;;;8.97;;
7025;SDS011;3554;42.132;24.786;2023-04-25T05:46:35;9.60;;;8.70;;
7025;SDS011;3554;42.132;24.786;2023-04-25T05:49:02;10.07;;;8.93;;
7025;SDS011;3554;42.132;24.786;2023-04-25T05:51:29;11.33;;;9.57;;
7025;SDS011;3554;42.132;24.786;2023-04-25T05:53:56;9.17;;;8.47;;
7025;SDS011;3554;42.132;24.786;2023-04-25T05:56:24;8.90;;;8.20;;
7025;SDS011;3554;42.132;24.786;2023-04-25T05:58:51;11.87;;;9.23;;
7025;SDS011;3554;42.132;24.786;2023-04-25T06:01:18;9.50;;;8.60;;
7025;SDS011;3554;42.132;24.786;2023-04-25T06:03:45;10.77;;;9.70;;
7025;SDS011;3554;42.132;24.786;2023-04-25T06:06:12;10.23;;;9.23;;
7025;SDS011;3554;42.132;24.786;2023-04-25T06:08:39;7.37;;;6.87;;
7025;SDS011;3554;42.132;24.786;2023-04-25T06:11:06;8.00;;;7.07;;
7025;SDS011;3554;42.132;24.786;2023-04-25T06:13:34;12.23;;;10.73;;
7025;SDS011;3554;42.132;24.786;2023-04-25T06:16:01;9.70;;;7.97;;
7025;SDS011;3554;42.132;24.786;2023-04-25T06:18:27;6.93;;;6.33;;
7025;SDS011;3554;42.132;24.786;2023-04-25T06:20:54;6.60;;;6.00;;
7025;SDS011;3554;42.132;24.786;2023-04-25T06:23:21;6.43;;;5.90;;
7025;SDS011;3554;42.132;24.786;2023-04-25T06:25:48;6.90;;;6.40;;
7025;SDS011;3554;42.132;24.786;2023-04-25T06:28:14;8.40;;;7.53;;
7025;SDS011;3554;42.132;24.786;2023-04-25T06:30:42;9.97;;;7.97;;
7025;SDS011;3554;42.132;24.786;2023-04-25T06:33:09;10.73;;;7.90;;
7025;SDS011;3554;42.132;24.786;2023-04-25T06:35:36;9.07;;;8.17;;
7025;SDS011;3554;42.132;24.786;2023-04-25T06:38:03;7.53;;;6.93;;
7025;SDS011;3554;42.132;24.786;2023-04-25T06:40:30;7.97;;;7.30;;
7025;SDS011;3554;42.132;24.786;2023-04-25T06:42:56;8.47;;;6.07;;
7025;SDS011;3554;42.132;24.786;2023-04-25T06:45:23;5.23;;;4.90;;
7025;SDS011;3554;42.132;24.786;2023-04-25T06:47:51;5.33;;;4.93;;
7025;SDS011;3554;42.132;24.786;2023-04-25T06:50:18;6.13;;;5.70;;
7025;SDS011;3554;42.132;24.786;2023-04-25T06:52:45;9.30;;;6.70;;
7025;SDS011;3554;42.132;24.786;2023-04-25T06:55:11;5.97;;;5.50;;
7025;SDS011;3554;42.132;24.786;2023-04-25T06:57:38;5.57;;;5.17;;
7025;SDS011;3554;42.132;24.786;2023-04-25T07:00:05;5.60;;;5.30;;
7025;SDS011;3554;42.132;24.786;2023-04-25T07:02:34;5.30;;;5.00;;
7025;SDS011;3554;42.132;24.786;2023-04-25T07:05:03;7.07;;;6.67;;
7025;SDS011;3554;42.132;24.786;2023-04-25T07:07:30;7.07;;;6.57;;
7025;SDS011;3554;42.132;24.786;2023-04-25T07:09:57;5.47;;;4.97;;
7025;SDS011;3554;42.132;24.786;2023-04-25T07:12:24;5.23;;;4.80;;
7025;SDS011;3554;42.132;24.786;2023-04-25T07:14:51;4.93;;;4.63;;
7025;SDS011;3554;42.132;24.786;2023-04-25T07:17:18;4.70;;;4.27;;
7025;SDS011;3554;42.132;24.786;2023-04-25T07:19:45;5.70;;;5.17;;
7025;SDS011;3554;42.132;24.786;2023-04-25T07:22:13;5.00;;;4.80;;
7025;SDS011;3554;42.132;24.786;2023-04-25T07:24:39;5.33;;;4.87;;
7025;SDS011;3554;42.132;24.786;2023-04-25T07:27:06;6.63;;;6.03;;
7025;SDS011;3554;42.132;24.786;2023-04-25T07:29:33;5.83;;;5.30;;
7025;SDS011;3554;42.132;24.786;2023-04-25T07:32:02;7.23;;;5.97;;
7025;SDS011;3554;42.132;24.786;2023-04-25T07:34:29;6.83;;;6.43;;
7025;SDS011;3554;42.132;24.786;2023-04-25T07:36:57;9.00;;;6.40;;
7025;SDS011;3554;42.132;24.786;2023-04-25T07:39:25;8.40;;;7.60;;
7025;SDS011;3554;42.132;24.786;2023-04-25T07:41:52;8.00;;;7.27;;
7025;SDS011;3554;42.132;24.786;2023-04-25T07:44:19;9.33;;;8.33;;
7025;SDS011;3554;42.132;24.786;2023-04-25T07:46:46;8.90;;;8.20;;
7025;SDS011;3554;42.132;24.786;2023-04-25T07:49:13;8.70;;;7.87;;
7025;SDS011;3554;42.132;24.786;2023-04-25T07:51:40;8.27;;;7.57;;
7025;SDS011;3554;42.132;24.786;2023-04-25T07:54:08;8.13;;;7.67;;
7025;SDS011;3554;42.132;24.786;2023-04-25T07:56:36;7.00;;;6.60;;
7025;SDS011;3554;42.132;24.786;2023-04-25T07:59:03;9.63;;;8.60;;
7025;SDS011;3554;42.132;24.786;2023-04-25T08:01:30;8.93;;;8.43;;
7025;SDS011;3554;42.132;24.786;2023-04-25T08:03:57;11.13;;;10.27;;
7025;SDS011;3554;42.132;24.786;2023-04-25T08:06:23;9.87;;;9.13;;
7025;SDS011;3554;42.132;24.786;2023-04-25T08:08:50;9.10;;;8.37;;
7025;SDS011;3554;42.132;24.786;2023-04-25T08:11:17;8.43;;;7.83;;
7025;SDS011;3554;42.132;24.786;2023-04-25T08:13:45;9.50;;;8.90;;
7025;SDS011;3554;42.132;24.786;2023-04-25T08:16:12;11.00;;;10.10;;
7025;SDS011;3554;42.132;24.786;2023-04-25T08:18:39;9.60;;;8.90;;
7025;SDS011;3554;42.132;24.786;2023-04-25T08:21:06;10.37;;;9.20;;
7025;SDS011;3554;42.132;24.786;2023-04-25T08:23:34;11.13;;;8.27;;
7025;SDS011;3554;42.132;24.786;2023-04-25T08:26:00;8.50;;;7.90;;
7025;SDS011;3554;42.132;24.786;2023-04-25T08:28:28;9.43;;;8.43;;
7025;SDS011;3554;42.132;24.786;2023-04-25T08:30:56;10.10;;;8.73;;
7025;SDS011;3554;42.132;24.786;2023-04-25T08:33:23;8.67;;;8.10;;
7025;SDS011;3554;42.132;24.786;2023-04-25T08:35:50;8.77;;;8.07;;
7025;SDS011;3554;42.132;24.786;2023-04-25T08:38:17;11.00;;;8.63;;
7025;SDS011;3554;42.132;24.786;2023-04-25T08:40:44;8.93;;;8.30;;
7025;SDS011;3554;42.132;24.786;2023-04-25T08:43:16;8.40;;;7.90;;
7025;SDS011;3554;42.132;24.786;2023-04-25T08:45:45;9.07;;;7.67;;
7025;SDS011;3554;42.132;24.786;2023-04-25T08:48:14;8.50;;;7.63;;
7025;SDS011;3554;42.132;24.786;2023-04-25T08:50:44;8.33;;;6.60;;
7025;SDS011;3554;42.132;24.786;2023-04-25T08:53:16;7.80;;;7.20;;
7025;SDS011;3554;42.132;24.786;2023-04-25T08:55:45;7.47;;;6.93;;
7025;SDS011;3554;42.132;24.786;2023-04-25T08:58:12;7.20;;;6.60;;
7025;SDS011;3554;42.132;24.786;2023-04-25T09:00:39;7.33;;;6.77;;
7025;SDS011;3554;42.132;24.786;2023-04-25T09:03:06;8.77;;;6.40;;
7025;SDS011;3554;42.132;24.786;2023-04-25T09:05:34;7.93;;;5.87;;
7025;SDS011;3554;42.132;24.786;2023-04-25T09:08:03;5.60;;;5.27;;
7025;SDS011;3554;42.132;24.786;2023-04-25T09:10:29;4.13;;;3.83;;
7025;SDS011;3554;42.132;24.786;2023-04-25T09:13:03;3.90;;;3.60;;
7025;SDS011;3554;42.132;24.786;2023-04-25T09:15:32;4.60;;;3.87;;
7025;SDS011;3554;42.132;24.786;2023-04-25T09:17:59;3.83;;;3.63;;
7025;SDS011;3554;42.132;24.786;2023-04-25T09:20:26;3.87;;;3.60;;
7025;SDS011;3554;42.132;24.786;2023-04-25T09:23:04;4.30;;;3.93;;
7025;SDS011;3554;42.132;24.786;2023-04-25T09:25:35;4.43;;;4.07;;
7025;SDS011;3554;42.132;24.786;2023-04-25T09:28:04;4.03;;;3.67;;
7025;SDS011;3554;42.132;24.786;2023-04-25T09:30:32;3.93;;;3.73;;
7025;SDS011;3554;42.132;24.786;2023-04-25T09:33:03;3.30;;;3.10;;
7025;SDS011;3554;42.132;24.786;2023-04-25T09:35:34;3.67;;;3.33;;
7025;SDS011;3554;42.132;24.786;2023-04-25T09:38:01;3.77;;;3.57;;
7025;SDS011;3554;42.132;24.786;2023-04-25T09:40:29;3.27;;;3.07;;
7025;SDS011;3554;42.132;24.786;2023-04-25T09:42:56;3.57;;;3.27;;
7025;SDS011;3554;42.132;24.786;2023-04-25T09:45:24;3.50;;;3.30;;
7025;SDS011;3554;42.132;24.786;2023-04-25T09:47:52;3.47;;;3.27;;
7025;SDS011;3554;42.132;24.786;2023-04-25T09:50:22;3.90;;;3.47;;
7025;SDS011;3554;42.132;24.786;2023-04-25T09:53:01;3.07;;;2.87;;
7025;SDS011;3554;42.132;24.786;2023-04-25T09:55:30;3.10;;;2.90;;
7025;SDS011;3554;42.132;24.786;2023-04-25T09:57:58;6.90;;;5.33;;
7025;SDS011;3554;42.132;24.786;2023-04-25T10:00:30;3.07;;;2.87;;
7025;SDS011;3554;42.132;24.786;2023-04-25T10:02:58;3.00;;;2.13;;
7025;SDS011;3554;42.132;24.786;2023-04-25T10:05:29;2.50;;;2.40;;
7025;SDS011;3554;42.132;24.786;2023-04-25T10:07:58;2.80;;;2.70;;
7025;SDS011;3554;42.132;24.786;2023-04-25T10:10:25;3.30;;;2.70;;
7025;SDS011;3554;42.132;24.786;2023-04-25T10:12:54;2.67;;;2.47;;
7025;SDS011;3554;42.132;24.786;2023-04-25T10:15:21;2.97;;;2.77;;
7025;SDS011;3554;42.132;24.786;2023-04-25T10:17:49;2.60;;;2.50;;
7025;SDS011;3554;42.132;24.786;2023-04-25T10:20:16;2.63;;;2.53;;
7025;SDS011;3554;42.132;24.786;2023-04-25T10:22:44;3.67;;;3.47;;
7025;SDS011;3554;42.132;24.786;2023-04-25T10:25:13;2.77;;;2.60;;
7025;SDS011;3554;42.132;24.786;2023-04-25T10:27:40;4.40;;;2.40;;
7025;SDS011;3554;42.132;24.786;2023-04-25T10:30:10;2.20;;;2.10;;
7025;SDS011;3554;42.132;24.786;2023-04-25T10:32:41;3.00;;;2.80;;
7025;SDS011;3554;42.132;24.786;2023-04-25T10:35:12;2.60;;;2.50;;
7025;SDS011;3554;42.132;24.786;2023-04-25T10:37:59;4.13;;;2.70;;
7025;SDS011;3554;42.132;24.786;2023-04-25T10:40:29;2.50;;;2.40;;
7025;SDS011;3554;42.132;24.786;2023-04-25T10:43:32;3.17;;;2.87;;
7025;SDS011;3554;42.132;24.786;2023-04-25T10:46:13;3.23;;;3.07;;
7025;SDS011;3554;42.132;24.786;2023-04-25T10:48:45;3.33;;;3.13;;
7025;SDS011;3554;42.132;24.786;2023-04-25T10:51:17;3.47;;;3.13;;
7025;SDS011;3554;42.132;24.786;2023-04-25T10:56:36;4.30;;;3.17;;
7025;SDS011;3554;42.132;24.786;2023-04-25T10:59:05;4.30;;;4.00;;
7025;SDS011;3554;42.132;24.786;2023-04-25T11:01:37;3.53;;;3.23;;
7025;SDS011;3554;42.132;24.786;2023-04-25T11:04:05;3.13;;;2.93;;
7025;SDS011;3554;42.132;24.786;2023-04-25T11:06:34;2.77;;;2.67;;
7025;SDS011;3554;42.132;24.786;2023-04-25T11:09:24;3.47;;;3.37;;
7025;SDS011;3554;42.132;24.786;2023-04-25T11:11:53;3.70;;;3.20;;
7025;SDS011;3554;42.132;24.786;2023-04-25T11:14:20;3.53;;;3.33;;
7025;SDS011;3554;42.132;24.786;2023-04-25T11:16:48;3.83;;;3.53;;
7025;SDS011;3554;42.132;24.786;2023-04-25T11:19:19;3.60;;;3.27;;
7025;SDS011;3554;42.132;24.786;2023-04-25T11:21:46;4.07;;;3.87;;
7025;SDS011;3554;42.132;24.786;2023-04-25T11:24:13;3.60;;;3.40;;
7025;SDS011;3554;42.132;24.786;2023-04-25T11:26:41;3.83;;;3.53;;
7025;SDS011;3554;42.132;24.786;2023-04-25T11:29:08;3.40;;;3.13;;
7025;SDS011;3554;42.132;24.786;2023-04-25T11:31:35;5.60;;;3.10;;
7025;SDS011;3554;42.132;24.786;2023-04-25T11:34:03;3.90;;;3.60;;
7025;SDS011;3554;42.132;24.786;2023-04-25T11:36:30;3.80;;;3.50;;
7025;SDS011;3554;42.132;24.786;2023-04-25T11:38:57;5.63;;;3.40;;
7025;SDS011;3554;42.132;24.786;2023-04-25T11:41:24;3.60;;;3.40;;
7025;SDS011;3554;42.132;24.786;2023-04-25T11:43:52;3.83;;;3.50;;
7025;SDS011;3554;42.132;24.786;2023-04-25T11:46:19;4.30;;;3.27;;
7025;SDS011;3554;42.132;24.786;2023-04-25T11:48:46;4.77;;;2.87;;
7025;SDS011;3554;42.132;24.786;2023-04-25T11:51:14;3.10;;;3.00;;
7025;SDS011;3554;42.132;24.786;2023-04-25T11:53:41;3.47;;;3.03;;
7025;SDS011;3554;42.132;24.786;2023-04-25T11:56:09;3.83;;;3.27;;
7025;SDS011;3554;42.132;24.786;2023-04-25T12:01:25;3.57;;;3.37;;
7025;SDS011;3554;42.132;24.786;2023-04-25T12:03:53;3.67;;;3.37;;
7025;SDS011;3554;42.132;24.786;2023-04-25T12:06:21;3.17;;;2.97;;
7025;SDS011;3554;42.132;24.786;2023-04-25T12:09:03;3.17;;;3.07;;
7025;SDS011;3554;42.132;24.786;2023-04-25T12:11:31;2.93;;;2.77;;
7025;SDS011;3554;42.132;24.786;2023-04-25T12:14:01;2.10;;;2.00;;
7025;SDS011;3554;42.132;24.786;2023-04-25T12:16:29;3.03;;;2.83;;
7025;SDS011;3554;42.132;24.786;2023-04-25T12:18:56;3.70;;;2.60;;
7025;SDS011;3554;42.132;24.786;2023-04-25T12:21:29;3.37;;;3.03;;
7025;SDS011;3554;42.132;24.786;2023-04-25T12:24:07;2.90;;;2.67;;
7025;SDS011;3554;42.132;24.786;2023-04-25T12:26:45;3.20;;;2.90;;
7025;SDS011;3554;42.132;24.786;2023-04-25T12:29:20;3.50;;;3.30;;
7025;SDS011;3554;42.132;24.786;2023-04-25T12:31:49;3.60;;;3.33;;
7025;SDS011;3554;42.132;24.786;2023-04-25T12:34:17;2.80;;;2.60;;
7025;SDS011;3554;42.132;24.786;2023-04-25T12:36:45;2.97;;;2.77;;
7025;SDS011;3554;42.132;24.786;2023-04-25T12:39:15;3.33;;;3.07;;
7025;SDS011;3554;42.132;24.786;2023-04-25T12:41:44;3.60;;;3.30;;
7025;SDS011;3554;42.132;24.786;2023-04-25T12:44:11;3.03;;;2.70;;
7025;SDS011;3554;42.132;24.786;2023-04-25T12:46:39;3.50;;;3.30;;
7025;SDS011;3554;42.132;24.786;2023-04-25T12:49:07;2.90;;;2.57;;
7025;SDS011;3554;42.132;24.786;2023-04-25T12:51:34;2.90;;;2.73;;
7025;SDS011;3554;42.132;24.786;2023-04-25T12:54:03;2.57;;;2.43;;
7025;SDS011;3554;42.132;24.786;2023-04-25T12:56:31;3.00;;;2.80;;
7025;SDS011;3554;42.132;24.786;2023-04-25T12:58:58;2.60;;;2.50;;
7025;SDS011;3554;42.132;24.786;2023-04-25T13:01:25;2.90;;;2.80;;
7025;SDS011;3554;42.132;24.786;2023-04-25T13:03:52;2.70;;;2.50;;
7025;SDS011;3554;42.132;24.786;2023-04-25T13:06:19;3.40;;;3.10;;
7025;SDS011;3554;42.132;24.786;2023-04-25T13:08:46;2.87;;;2.67;;
7025;SDS011;3554;42.132;24.786;2023-04-25T13:11:15;3.80;;;3.50;;
7025;SDS011;3554;42.132;24.786;2023-04-25T13:13:41;3.40;;;3.10;;
7025;SDS011;3554;42.132;24.786;2023-04-25T13:16:09;3.00;;;2.90;;
7025;SDS011;3554;42.132;24.786;2023-04-25T13:18:38;4.10;;;3.60;;
7025;SDS011;3554;42.132;24.786;2023-04-25T13:21:05;5.33;;;3.07;;
7025;SDS011;3554;42.132;24.786;2023-04-25T13:23:32;2.80;;;2.70;;
7025;SDS011;3554;42.132;24.786;2023-04-25T13:25:59;5.37;;;3.43;;
7025;SDS011;3554;42.132;24.786;2023-04-25T13:28:28;3.43;;;3.13;;
7025;SDS011;3554;42.132;24.786;2023-04-25T13:30:55;4.43;;;2.33;;
7025;SDS011;3554;42.132;24.786;2023-04-25T13:33:21;11.10;;;2.87;;
7025;SDS011;3554;42.132;24.786;2023-04-25T13:35:48;3.47;;;2.20;;
7025;SDS011;3554;42.132;24.786;2023-04-25T13:38:19;4.20;;;2.10;;
7025;SDS011;3554;42.132;24.786;2023-04-25T13:40:47;9.40;;;3.57;;
7025;SDS011;3554;42.132;24.786;2023-04-25T13:43:14;8.43;;;2.80;;
7025;SDS011;3554;42.132;24.786;2023-04-25T13:45:42;4.97;;;2.40;;
7025;SDS011;3554;42.132;24.786;2023-04-25T13:48:09;3.70;;;1.90;;
7025;SDS011;3554;42.132;24.786;2023-04-25T13:50:36;2.37;;;1.50;;
7025;SDS011;3554;42.132;24.786;2023-04-25T13:53:03;1.40;;;1.40;;
7025;SDS011;3554;42.132;24.786;2023-04-25T13:55:30;1.80;;;1.10;;
7025;SDS011;3554;42.132;24.786;2023-04-25T13:57:57;1.70;;;1.60;;
7025;SDS011;3554;42.132;24.786;2023-04-25T14:00:24;2.83;;;1.53;;
7025;SDS011;3554;42.132;24.786;2023-04-25T14:02:52;1.60;;;1.50;;
7025;SDS011;3554;42.132;24.786;2023-04-25T14:05:19;1.10;;;1.10;;
7025;SDS011;3554;42.132;24.786;2023-04-25T14:07:46;2.00;;;1.40;;
7025;SDS011;3554;42.132;24.786;2023-04-25T14:10:12;4.57;;;1.20;;
7025;SDS011;3554;42.132;24.786;2023-04-25T14:12:39;1.50;;;1.13;;
7025;SDS011;3554;42.132;24.786;2023-04-25T14:15:06;1.47;;;1.37;;
7025;SDS011;3554;42.132;24.786;2023-04-25T14:17:33;1.90;;;1.10;;
7025;SDS011;3554;42.132;24.786;2023-04-25T14:20:01;1.60;;;1.50;;
7025;SDS011;3554;42.132;24.786;2023-04-25T14:22:30;2.10;;;1.90;;
7025;SDS011;3554;42.132;24.786;2023-04-25T14:24:57;2.10;;;1.37;;
7025;SDS011;3554;42.132;24.786;2023-04-25T14:27:24;3.33;;;1.67;;
7025;SDS011;3554;42.132;24.786;2023-04-25T14:29:51;2.97;;;1.57;;
7025;SDS011;3554;42.132;24.786;2023-04-25T14:32:18;4.63;;;1.73;;
7025;SDS011;3554;42.132;24.786;2023-04-25T14:34:45;2.00;;;1.80;;
7025;SDS011;3554;42.132;24.786;2023-04-25T14:37:13;1.70;;;1.60;;
7025;SDS011;3554;42.132;24.786;2023-04-25T14:39:42;2.03;;;1.60;;
7025;SDS011;3554;42.132;24.786;2023-04-25T14:42:08;1.63;;;1.30;;
7025;SDS011;3554;42.132;24.786;2023-04-25T14:44:36;2.00;;;1.90;;
7025;SDS011;3554;42.132;24.786;2023-04-25T14:47:03;1.90;;;1.70;;
7025;SDS011;3554;42.132;24.786;2023-04-25T14:49:29;1.80;;;1.70;;
7025;SDS011;3554;42.132;24.786;2023-04-25T14:51:56;2.43;;;1.70;;
7025;SDS011;3554;42.132;24.786;2023-04-25T14:54:24;1.67;;;1.67;;
7025;SDS011;3554;42.132;24.786;2023-04-25T14:56:51;1.37;;;1.27;;
7025;SDS011;3554;42.132;24.786;2023-04-25T14:59:18;1.57;;;1.47;;
7025;SDS011;3554;42.132;24.786;2023-04-25T15:01:45;2.53;;;1.80;;
7025;SDS011;3554;42.132;24.786;2023-04-25T15:04:12;1.70;;;1.60;;
7025;SDS011;3554;42.132;24.786;2023-04-25T15:06:39;1.70;;;1.60;;
7025;SDS011;3554;42.132;24.786;2023-04-25T15:09:06;2.03;;;0.90;;